createdAt,value
2017-09-12T00:00:36.702Z,14.30
2017-09-12T00:03:04.818Z,14.30
2017-09-12T00:05:32.942Z,14.30
2017-09-12T00:08:01.065Z,14.30
2017-09-12T00:10:29.234Z,14.30
2017-09-12T00:12:57.360Z,14.40
2017-09-12T00:15:25.469Z,14.40
2017-09-12T00:17:54.337Z,14.40
2017-09-12T00:20:22.457Z,14.40
2017-09-12T00:22:50.586Z,14.40
2017-09-12T00:25:19.465Z,14.40
2017-09-12T00:27:47.575Z,14.40
2017-09-12T00:30:15.838Z,14.40
2017-09-12T00:32:43.919Z,14.40
2017-09-12T00:35:12.048Z,14.30
2017-09-12T00:37:40.155Z,14.30
2017-09-12T00:40:08.253Z,14.30
2017-09-12T00:42:36.384Z,14.40
2017-09-12T00:45:04.497Z,14.30
2017-09-12T00:47:33.360Z,14.30
2017-09-12T00:50:01.754Z,14.30
2017-09-12T00:52:29.885Z,14.30
2017-09-12T00:54:59.577Z,14.20
2017-09-12T00:57:27.678Z,14.20
2017-09-12T00:59:55.800Z,14.20
2017-09-12T01:02:24.678Z,14.20
2017-09-12T01:04:53.661Z,14.10
2017-09-12T01:07:22.537Z,14.10
2017-09-12T01:09:50.650Z,14.10
2017-09-12T01:12:18.840Z,14.10
2017-09-12T01:14:46.946Z,14.10
2017-09-12T01:17:15.845Z,14.00
2017-09-12T01:19:43.919Z,14.00
2017-09-12T01:22:12.003Z,14.00
2017-09-12T01:24:40.151Z,13.90
2017-09-12T01:27:08.263Z,13.90
2017-09-12T01:29:36.354Z,13.90
2017-09-12T01:32:04.461Z,13.80
2017-09-12T01:34:32.592Z,13.80
2017-09-12T01:37:00.683Z,13.70
2017-09-12T01:39:28.828Z,13.70
2017-09-12T01:41:56.956Z,13.60
2017-09-12T01:44:25.839Z,13.50
2017-09-12T01:46:53.971Z,13.50
2017-09-12T01:49:22.083Z,13.50
2017-09-12T01:51:50.216Z,13.40
2017-09-12T01:54:18.310Z,13.40
2017-09-12T01:56:47.365Z,13.40
2017-09-12T01:59:15.517Z,13.30
2017-09-12T02:01:43.625Z,13.40
2017-09-12T02:04:11.834Z,13.30
2017-09-12T02:06:39.980Z,13.30
2017-09-12T02:09:08.133Z,13.30
2017-09-12T02:14:10.690Z,13.30
2017-09-12T02:16:38.803Z,13.20
2017-09-12T02:19:06.925Z,13.20
2017-09-12T02:21:35.057Z,13.20
2017-09-12T02:24:03.167Z,13.20
2017-09-12T02:26:31.310Z,13.20
2017-09-12T02:28:59.465Z,13.10
2017-09-12T02:31:29.090Z,12.90
2017-09-12T02:33:57.211Z,12.90
2017-09-12T02:36:25.321Z,13.00
2017-09-12T02:38:53.415Z,12.90
2017-09-12T02:41:21.734Z,12.90
2017-09-12T02:43:49.941Z,12.90
2017-09-12T02:46:18.891Z,12.80
2017-09-12T02:48:46.990Z,12.80
2017-09-12T02:51:15.100Z,12.90
2017-09-12T02:53:43.251Z,12.80
2017-09-12T02:56:12.141Z,12.80
2017-09-12T02:58:40.268Z,12.80
2017-09-12T03:01:08.383Z,12.80
2017-09-12T03:03:36.506Z,12.80
2017-09-12T03:06:04.743Z,12.80
2017-09-12T03:08:33.008Z,12.80
2017-09-12T03:11:01.147Z,12.70
2017-09-12T03:13:29.314Z,12.70
2017-09-12T03:15:57.418Z,12.70
2017-09-12T03:18:25.527Z,12.70
2017-09-12T03:20:53.642Z,12.60
2017-09-12T03:23:21.761Z,12.60
2017-09-12T03:25:49.913Z,12.60
2017-09-12T03:28:18.010Z,12.60
2017-09-12T03:30:46.134Z,12.60
2017-09-12T03:33:14.263Z,12.50
2017-09-12T03:35:42.405Z,12.60
2017-09-12T03:38:12.057Z,12.40
2017-09-12T03:40:40.207Z,12.50
2017-09-12T03:43:08.915Z,12.50
2017-09-12T03:45:37.045Z,12.40
2017-09-12T03:48:05.181Z,12.50
2017-09-12T03:50:33.302Z,12.40
2017-09-12T03:53:01.439Z,12.40
2017-09-12T03:55:29.589Z,12.40
2017-09-12T03:57:57.708Z,12.40
2017-09-12T04:00:25.847Z,12.40
2017-09-12T04:02:53.960Z,12.50
2017-09-12T04:05:22.848Z,12.50
2017-09-12T04:07:51.044Z,12.40
2017-09-12T04:10:19.214Z,12.50
2017-09-12T04:12:47.383Z,12.50
2017-09-12T04:15:15.499Z,12.60
2017-09-12T04:17:43.664Z,12.60
2017-09-12T04:20:11.843Z,12.60
2017-09-12T04:22:40.750Z,12.60
2017-09-12T04:25:08.922Z,12.60
2017-09-12T04:27:37.800Z,12.60
2017-09-12T04:30:05.920Z,12.60
2017-09-12T04:32:34.087Z,12.60
2017-09-12T04:35:02.273Z,12.60
2017-09-12T04:37:30.552Z,12.70
2017-09-12T04:39:58.679Z,12.60
2017-09-12T04:42:27.553Z,12.70
2017-09-12T04:44:55.683Z,12.60
2017-09-12T04:47:24.370Z,12.70
2017-09-12T04:49:52.532Z,12.80
2017-09-12T04:52:20.647Z,12.90
2017-09-12T04:54:48.774Z,12.90
2017-09-12T04:57:16.860Z,13.00
2017-09-12T04:59:45.751Z,13.10
2017-09-12T05:02:14.649Z,13.10
2017-09-12T05:04:42.773Z,13.10
2017-09-12T05:07:10.857Z,13.20
2017-09-12T05:09:39.771Z,13.30
2017-09-12T05:12:07.866Z,13.30
2017-09-12T05:14:35.999Z,13.30
2017-09-12T05:17:05.046Z,13.30
2017-09-12T05:19:33.988Z,13.30
2017-09-12T05:22:02.126Z,13.30
2017-09-12T05:24:30.231Z,13.30
2017-09-12T05:26:58.328Z,13.40
2017-09-12T05:29:27.231Z,13.50
2017-09-12T05:31:55.332Z,13.40
2017-09-12T05:34:23.453Z,13.50
2017-09-12T05:36:51.681Z,13.50
2017-09-12T05:39:20.595Z,13.50
2017-09-12T05:41:48.716Z,13.50
2017-09-12T05:44:17.578Z,13.50
2017-09-12T05:46:45.709Z,13.50
2017-09-12T05:49:13.952Z,13.50
2017-09-12T05:51:43.131Z,13.50
2017-09-12T05:54:12.110Z,13.60
2017-09-12T05:56:40.259Z,13.50
2017-09-12T05:59:09.169Z,13.60
2017-09-12T06:01:37.286Z,13.60
2017-09-12T06:04:05.429Z,13.70
2017-09-12T06:06:33.558Z,13.70
2017-09-12T06:09:01.674Z,13.80
2017-09-12T06:11:30.571Z,13.90
2017-09-12T06:13:58.695Z,13.80
2017-09-12T06:16:27.708Z,13.90
2017-09-12T06:18:55.855Z,13.90
2017-09-12T06:21:23.964Z,13.90
2017-09-12T06:23:52.091Z,13.90
2017-09-12T06:26:20.202Z,13.90
2017-09-12T06:28:48.313Z,14.00
2017-09-12T06:31:17.236Z,14.00
2017-09-12T06:33:45.336Z,13.90
2017-09-12T06:36:13.810Z,14.00
2017-09-12T06:38:45.176Z,14.10
2017-09-12T06:41:13.861Z,14.00
2017-09-12T06:43:42.007Z,14.10
2017-09-12T06:46:10.310Z,14.20
2017-09-12T06:48:38.731Z,14.10
2017-09-12T06:51:06.888Z,14.20
2017-09-12T06:53:35.467Z,14.20
2017-09-12T06:56:03.581Z,14.30
2017-09-12T06:58:33.458Z,14.20
2017-09-12T07:01:03.444Z,14.40
2017-09-12T07:03:33.048Z,14.30
2017-09-12T07:06:12.465Z,14.30
2017-09-12T07:08:40.773Z,14.40
2017-09-12T07:11:08.981Z,14.40
2017-09-12T07:13:37.174Z,14.50
2017-09-12T07:16:05.366Z,14.50
2017-09-12T07:18:34.955Z,14.60
2017-09-12T07:21:03.110Z,14.60
2017-09-12T07:23:31.249Z,14.60
2017-09-12T07:25:59.357Z,14.60
2017-09-12T07:28:27.470Z,14.70
2017-09-12T07:30:55.614Z,14.80
2017-09-12T07:33:23.723Z,14.90
2017-09-12T07:35:51.868Z,15.10
2017-09-12T07:38:21.303Z,15.30
2017-09-12T07:40:49.610Z,15.40
2017-09-12T07:43:17.938Z,15.70
2017-09-12T07:45:47.008Z,16.00
2017-09-12T07:48:15.382Z,16.50
2017-09-12T07:50:43.516Z,17.00
2017-09-12T07:53:11.687Z,17.00
2017-09-12T07:55:40.599Z,17.10
2017-09-12T07:58:08.884Z,17.00
2017-09-12T08:00:37.076Z,16.90
2017-09-12T08:03:05.342Z,16.80
2017-09-12T08:05:33.457Z,16.40
2017-09-12T08:08:01.597Z,16.20
2017-09-12T08:10:29.887Z,16.20
2017-09-12T08:12:57.993Z,16.10
2017-09-12T08:15:26.779Z,16.10
2017-09-12T08:17:54.898Z,16.10
2017-09-12T08:20:23.042Z,15.90
2017-09-12T08:22:51.140Z,15.90
2017-09-12T08:25:20.023Z,15.90
2017-09-12T08:27:48.197Z,15.90
2017-09-12T08:30:17.247Z,15.90
2017-09-12T08:32:45.673Z,15.80
2017-09-12T08:35:14.613Z,15.90
2017-09-12T08:37:42.713Z,15.80
2017-09-12T08:40:10.816Z,16.00
2017-09-12T08:42:38.928Z,16.00
2017-09-12T08:45:07.833Z,15.80
2017-09-12T08:47:36.033Z,15.80
2017-09-12T08:50:04.895Z,15.90
2017-09-12T08:52:33.802Z,15.80
2017-09-12T08:55:01.898Z,15.70
2017-09-12T08:57:30.822Z,15.50
2017-09-12T08:59:58.979Z,15.50
2017-09-12T09:02:27.106Z,15.50
2017-09-12T09:04:55.301Z,15.60
2017-09-12T09:07:24.177Z,15.50
2017-09-12T09:09:52.387Z,15.50
2017-09-12T09:12:20.931Z,15.50
2017-09-12T09:14:49.057Z,15.60
2017-09-12T09:17:17.283Z,15.60
2017-09-12T09:19:45.391Z,15.70
2017-09-12T09:22:13.561Z,15.80
2017-09-12T09:24:41.696Z,16.00
2017-09-12T09:27:09.849Z,16.00
2017-09-12T09:29:38.845Z,16.10
2017-09-12T09:32:07.123Z,16.10
2017-09-12T09:34:36.033Z,16.10
2017-09-12T09:37:04.141Z,16.00
2017-09-12T09:39:32.358Z,16.10
2017-09-12T09:42:00.499Z,16.20
2017-09-12T09:44:29.380Z,16.30
2017-09-12T09:46:58.360Z,16.50
2017-09-12T09:49:27.228Z,16.50
2017-09-12T09:51:55.670Z,16.50
2017-09-12T09:54:23.824Z,16.50
2017-09-12T09:56:51.973Z,16.70
2017-09-12T09:59:20.090Z,16.80
2017-09-12T10:01:48.193Z,16.70
2017-09-12T10:04:18.515Z,16.90
2017-09-12T10:06:46.965Z,17.10
2017-09-12T10:09:15.775Z,17.40
2017-09-12T10:11:43.948Z,17.30
2017-09-12T10:14:13.250Z,17.00
2017-09-12T10:16:44.211Z,17.10
2017-09-12T10:19:12.364Z,17.10
2017-09-12T10:21:40.509Z,17.00
2017-09-12T10:24:08.687Z,17.10
2017-09-12T10:26:36.925Z,16.90
2017-09-12T10:29:05.823Z,17.10
2017-09-12T10:31:34.329Z,17.00
2017-09-12T10:34:02.428Z,17.00
2017-09-12T10:36:30.532Z,17.00
2017-09-12T10:38:58.674Z,16.90
2017-09-12T10:41:26.769Z,17.00
2017-09-12T10:43:54.899Z,17.10
2017-09-12T10:46:24.007Z,17.30
2017-09-12T10:49:01.762Z,17.30
2017-09-12T10:51:30.438Z,17.30
2017-09-12T10:53:58.565Z,17.50
2017-09-12T10:56:27.416Z,17.70
2017-09-12T10:58:55.782Z,17.60
2017-09-12T11:01:23.932Z,18.10
2017-09-12T11:03:53.544Z,18.70
2017-09-12T11:06:21.696Z,19.40
2017-09-12T11:08:50.538Z,20.20
2017-09-12T11:11:18.675Z,20.10
2017-09-12T11:13:48.519Z,20.50
2017-09-12T11:16:16.621Z,20.50
2017-09-12T11:18:46.306Z,19.30
2017-09-12T11:21:14.523Z,19.30
2017-09-12T11:23:44.318Z,18.30
2017-09-12T11:26:12.481Z,18.30
2017-09-12T11:28:41.676Z,17.90
2017-09-12T11:31:10.111Z,17.70
2017-09-12T11:33:43.891Z,17.40
2017-09-12T11:36:12.728Z,17.60
2017-09-12T11:38:40.820Z,18.10
2017-09-12T11:41:09.176Z,18.60
2017-09-12T11:43:37.299Z,19.10
2017-09-12T11:46:05.726Z,19.10
2017-09-12T11:48:33.930Z,18.70
2017-09-12T11:51:02.031Z,18.40
2017-09-12T11:53:31.009Z,18.30
2017-09-12T11:55:59.163Z,18.20
2017-09-12T11:58:28.037Z,18.00
2017-09-12T12:00:56.168Z,17.90
2017-09-12T12:03:25.226Z,17.60
2017-09-12T12:05:53.409Z,17.50
2017-09-12T12:08:21.570Z,17.10
2017-09-12T12:10:49.878Z,16.60
2017-09-12T12:13:18.022Z,16.10
2017-09-12T12:15:47.135Z,15.80
2017-09-12T12:18:15.221Z,15.60
2017-09-12T12:20:43.377Z,15.50
2017-09-12T12:23:12.311Z,15.20
2017-09-12T12:25:40.457Z,15.10
2017-09-12T12:28:11.490Z,15.20
2017-09-12T12:30:41.139Z,15.20
2017-09-12T12:33:09.733Z,15.40
2017-09-12T12:35:39.088Z,15.60
2017-09-12T12:38:08.667Z,16.00
2017-09-12T12:40:37.061Z,16.20
2017-09-12T12:43:07.352Z,16.30
2017-09-12T12:45:40.365Z,16.20
2017-09-12T12:48:09.739Z,16.70
2017-09-12T12:50:39.547Z,16.60
2017-09-12T12:53:14.155Z,16.90
2017-09-12T12:55:42.324Z,17.20
2017-09-12T12:58:10.481Z,17.40
2017-09-12T13:00:39.250Z,17.60
2017-09-12T13:03:07.383Z,17.50
2017-09-12T13:05:36.301Z,17.40
2017-09-12T13:08:05.106Z,17.40
2017-09-12T13:10:33.720Z,17.60
2017-09-12T13:13:02.979Z,17.90
2017-09-12T13:15:31.103Z,18.10
2017-09-12T13:17:59.981Z,18.30
2017-09-12T13:20:28.743Z,18.20
2017-09-12T13:22:57.687Z,18.60
2017-09-12T13:25:25.819Z,18.60
2017-09-12T13:27:54.731Z,19.50
2017-09-12T13:30:23.626Z,19.90
2017-09-12T13:32:53.532Z,19.90
2017-09-12T13:35:25.032Z,20.10
2017-09-12T13:37:53.882Z,20.10
2017-09-12T13:40:23.022Z,20.10
2017-09-12T13:42:51.946Z,20.10
2017-09-12T13:45:20.070Z,20.00
2017-09-12T13:47:49.061Z,19.80
2017-09-12T13:50:17.203Z,19.70
2017-09-12T13:52:45.288Z,19.90
2017-09-12T13:55:13.389Z,20.10
2017-09-12T13:57:41.532Z,20.50
2017-09-12T14:00:10.497Z,20.20
2017-09-12T14:05:13.139Z,20.10
2017-09-12T14:07:42.043Z,19.50
2017-09-12T14:10:10.198Z,19.50
2017-09-12T14:12:38.431Z,19.40
2017-09-12T14:15:06.596Z,19.10
2017-09-12T14:17:35.148Z,19.10
2017-09-12T14:22:37.649Z,18.50
2017-09-12T14:25:05.822Z,18.30
2017-09-12T14:27:34.557Z,18.20
2017-09-12T14:30:02.765Z,18.50
2017-09-12T14:32:31.857Z,18.50
2017-09-12T14:35:05.636Z,18.40
2017-09-12T14:37:34.367Z,18.40
2017-09-12T14:40:03.482Z,18.50
2017-09-12T14:42:32.671Z,19.00
2017-09-12T14:45:00.806Z,18.90
2017-09-12T14:47:28.906Z,19.00
2017-09-12T14:49:57.808Z,18.60
2017-09-12T14:52:25.932Z,18.60
2017-09-12T14:54:56.057Z,18.70
2017-09-12T14:57:24.471Z,18.80
2017-09-12T14:59:52.591Z,18.70
2017-09-12T15:02:22.428Z,18.60
2017-09-12T15:04:53.284Z,18.00
2017-09-12T15:07:28.358Z,18.00
2017-09-12T15:09:56.509Z,18.00
2017-09-12T15:12:24.629Z,18.00
2017-09-12T15:14:52.754Z,17.90
2017-09-12T15:17:20.889Z,17.80
2017-09-12T15:19:49.213Z,17.60
2017-09-12T15:22:18.229Z,17.30
2017-09-12T15:24:46.388Z,17.20
2017-09-12T15:27:14.796Z,17.20
2017-09-12T15:29:43.034Z,17.20
2017-09-12T15:32:11.203Z,17.10
2017-09-12T15:34:39.332Z,17.10
2017-09-12T15:37:07.483Z,16.90
2017-09-12T15:39:36.005Z,16.90
2017-09-12T15:42:04.267Z,16.90
2017-09-12T15:44:34.077Z,16.70
2017-09-12T15:47:02.429Z,16.70
2017-09-12T15:49:30.676Z,16.80
2017-09-12T15:52:00.906Z,16.80
2017-09-12T15:54:29.010Z,16.80
2017-09-12T15:56:58.664Z,16.70
2017-09-12T15:59:27.504Z,16.50
2017-09-12T16:01:55.623Z,16.50
2017-09-12T16:04:23.807Z,16.40
2017-09-12T16:06:51.935Z,16.40
2017-09-12T16:09:20.045Z,16.50
2017-09-12T16:11:48.240Z,16.50
2017-09-12T16:14:17.137Z,16.50
2017-09-12T16:16:45.259Z,16.50
2017-09-12T16:19:13.391Z,16.50
2017-09-12T16:21:41.515Z,16.60
2017-09-12T16:24:09.643Z,16.50
2017-09-12T16:26:37.750Z,16.50
2017-09-12T16:29:05.833Z,16.50
2017-09-12T16:31:33.966Z,16.30
2017-09-12T16:34:02.083Z,16.30
2017-09-12T16:36:30.257Z,16.30
2017-09-12T16:38:59.147Z,16.20
2017-09-12T16:41:28.044Z,16.20
2017-09-12T16:43:56.281Z,16.10
2017-09-12T16:46:24.380Z,16.10
2017-09-12T16:48:52.538Z,16.10
2017-09-12T16:51:20.634Z,16.10
2017-09-12T16:53:48.750Z,16.10
2017-09-12T16:56:16.886Z,16.00
2017-09-12T16:58:45.015Z,16.00
2017-09-12T17:01:13.173Z,15.80
2017-09-12T17:03:41.262Z,15.80
2017-09-12T17:06:09.426Z,15.60
2017-09-12T17:08:37.555Z,15.60
2017-09-12T17:11:05.689Z,15.60
2017-09-12T17:13:33.984Z,15.60
2017-09-12T17:16:02.211Z,15.50
2017-09-12T17:18:31.123Z,15.40
2017-09-12T17:20:59.280Z,15.30
2017-09-12T17:23:28.169Z,15.40
2017-09-12T17:25:56.288Z,15.30
2017-09-12T17:28:25.514Z,15.30
2017-09-12T17:30:54.095Z,15.20
2017-09-12T17:33:22.217Z,15.20
2017-09-12T17:35:50.305Z,15.20
2017-09-12T17:38:18.465Z,15.20
2017-09-12T17:40:46.579Z,15.20
2017-09-12T17:43:15.338Z,15.20
2017-09-12T17:45:43.544Z,15.20
2017-09-12T17:48:11.684Z,15.10
2017-09-12T17:50:39.833Z,15.10
2017-09-12T17:53:08.114Z,15.00
2017-09-12T17:55:37.069Z,14.90
2017-09-12T17:58:28.058Z,14.80
2017-09-12T18:01:01.972Z,14.90
2017-09-12T18:03:30.710Z,14.90
2017-09-12T18:05:58.823Z,14.80
2017-09-12T18:08:28.024Z,14.80
2017-09-12T18:10:57.870Z,14.80
2017-09-12T18:13:26.289Z,14.70
2017-09-12T18:15:54.390Z,14.60
2017-09-12T18:18:23.089Z,14.60
2017-09-12T18:20:51.180Z,14.50
2017-09-12T18:23:19.277Z,14.40
2017-09-12T18:28:21.769Z,14.40
2017-09-12T18:30:51.572Z,14.40
2017-09-12T18:33:19.949Z,14.30
2017-09-12T18:35:48.860Z,14.30
2017-09-12T18:38:18.059Z,14.20
2017-09-12T18:40:47.380Z,14.20
2017-09-12T18:43:19.927Z,14.20
2017-09-12T18:45:52.569Z,14.30
2017-09-12T18:48:21.402Z,14.30
2017-09-12T18:50:57.653Z,14.20
2017-09-12T18:53:27.354Z,14.10
2017-09-12T18:55:55.464Z,14.20
2017-09-12T18:58:25.311Z,14.20
2017-09-12T19:03:37.593Z,14.10
2017-09-12T19:06:06.688Z,14.10
2017-09-12T19:08:36.409Z,14.10
2017-09-12T19:11:04.538Z,14.10
2017-09-12T19:13:32.709Z,14.00
2017-09-12T19:16:01.634Z,13.90
2017-09-12T19:18:30.458Z,13.90
2017-09-12T19:20:58.900Z,13.90
2017-09-12T19:23:34.284Z,13.80
2017-09-12T19:26:14.660Z,13.60
2017-09-12T19:28:43.178Z,13.60
2017-09-12T19:31:11.294Z,13.60
2017-09-12T19:33:39.523Z,13.50
2017-09-12T19:36:07.687Z,13.50
2017-09-12T19:38:35.813Z,13.50
2017-09-12T19:41:03.966Z,13.50
2017-09-12T19:43:32.103Z,13.50
2017-09-12T19:46:00.185Z,13.50
2017-09-12T19:48:28.317Z,13.50
2017-09-12T19:50:56.431Z,13.50
2017-09-12T19:53:24.551Z,13.40
2017-09-12T19:55:52.772Z,13.40
2017-09-12T19:58:21.177Z,13.40
2017-09-12T20:00:52.176Z,13.40
2017-09-12T20:03:20.315Z,13.40
2017-09-12T20:05:49.966Z,13.30
2017-09-12T20:08:18.302Z,13.30
2017-09-12T20:10:46.422Z,13.30
2017-09-12T20:13:14.812Z,13.20
2017-09-12T20:15:43.182Z,13.20
2017-09-12T20:18:11.355Z,13.10
2017-09-12T20:20:39.459Z,13.10
2017-09-12T20:23:09.377Z,13.10
2017-09-12T20:25:37.988Z,13.10
2017-09-12T20:28:07.785Z,13.10
2017-09-12T20:30:39.662Z,13.00
2017-09-12T20:33:08.695Z,13.00
2017-09-12T20:35:37.338Z,13.10
2017-09-12T20:38:16.061Z,13.10
2017-09-12T20:40:50.490Z,13.10
2017-09-12T20:46:00.942Z,13.10
2017-09-12T20:48:29.887Z,13.10
2017-09-12T20:50:58.884Z,13.10
2017-09-12T20:53:29.057Z,13.00
2017-09-12T20:55:58.051Z,13.10
2017-09-12T20:58:31.295Z,13.10
2017-09-12T21:01:05.512Z,13.10
2017-09-12T21:03:43.339Z,13.00
2017-09-12T21:06:23.032Z,13.00
2017-09-12T21:08:54.263Z,13.00
2017-09-12T21:11:22.514Z,13.00
2017-09-12T21:13:50.616Z,13.00
2017-09-12T21:16:18.773Z,12.90
2017-09-12T21:18:46.881Z,12.90
2017-09-12T21:21:15.720Z,12.90
2017-09-12T21:23:43.860Z,12.80
2017-09-12T21:26:11.989Z,12.90
2017-09-12T21:28:40.090Z,12.90
2017-09-12T21:31:08.191Z,12.80
2017-09-12T21:33:36.593Z,12.80
2017-09-12T21:36:04.737Z,12.80
2017-09-12T21:38:32.840Z,12.80
2017-09-12T21:41:00.961Z,12.80
2017-09-12T21:43:29.067Z,12.80
2017-09-12T21:45:57.186Z,12.70
2017-09-12T21:48:25.310Z,12.70
2017-09-12T21:50:53.429Z,12.60
2017-09-12T21:53:21.541Z,12.60
2017-09-12T21:55:49.664Z,12.60
2017-09-12T21:58:17.745Z,12.60
2017-09-12T22:00:46.113Z,12.50
2017-09-12T22:03:14.219Z,12.60
2017-09-12T22:05:42.312Z,12.50
2017-09-12T22:08:10.451Z,12.40
2017-09-12T22:10:38.562Z,12.40
2017-09-12T22:13:06.683Z,12.40
2017-09-12T22:15:34.805Z,12.30
2017-09-12T22:18:02.961Z,12.40
2017-09-12T22:20:31.127Z,12.30
2017-09-12T22:22:59.342Z,12.30
2017-09-12T22:25:27.511Z,12.30
2017-09-12T22:27:55.636Z,12.20
2017-09-12T22:30:23.728Z,12.20
2017-09-12T22:32:51.863Z,12.20
2017-09-12T22:35:21.567Z,12.10
2017-09-12T22:37:49.709Z,12.00
2017-09-12T22:40:17.985Z,12.10
2017-09-12T22:42:46.097Z,12.10
2017-09-12T22:45:14.206Z,12.10
2017-09-12T22:47:42.494Z,12.00
2017-09-12T22:50:10.631Z,12.00
2017-09-12T22:52:38.786Z,12.10
2017-09-12T22:55:07.677Z,12.10
2017-09-12T22:57:36.571Z,12.10
2017-09-12T23:00:04.677Z,12.10
2017-09-12T23:02:32.793Z,12.00
2017-09-12T23:05:01.905Z,12.00
2017-09-12T23:07:30.020Z,11.90
2017-09-12T23:09:58.120Z,12.00
2017-09-12T23:12:26.204Z,12.00
2017-09-12T23:14:54.365Z,12.00
2017-09-12T23:17:22.481Z,11.90
2017-09-12T23:19:51.472Z,11.90
2017-09-12T23:22:31.454Z,11.80
2017-09-12T23:25:00.317Z,11.80
2017-09-12T23:27:28.443Z,11.80
2017-09-12T23:29:56.561Z,11.80
2017-09-12T23:32:25.070Z,11.90
2017-09-12T23:34:53.208Z,11.80
2017-09-12T23:37:22.102Z,11.80
2017-09-12T23:39:50.228Z,11.80
2017-09-12T23:42:18.346Z,11.80
2017-09-12T23:44:47.241Z,11.80
2017-09-12T23:47:16.115Z,11.70
2017-09-12T23:49:44.236Z,11.70
2017-09-12T23:52:12.403Z,11.70
2017-09-12T23:54:40.511Z,11.70
2017-09-12T23:57:08.618Z,11.70
2017-09-12T23:59:37.513Z,11.60
